Time;durP1;ratioP1;P1;durP2;ratioP2;P2;SDS_P1;SDS_P2;PMS_P1;PMS_P2;Temp;Humidity;BMP_temperature;BMP_pressure;BME280_temperature;BME280_humidity;BME280_pressure;Samples;Min_cycle;Max_cycle;Signal;HPM_P1;HPM_P2
2024/02/29 00:02:10;;;;;;;;;;;23.00;43.90;;;;;;5054224;28;19931;-65
2024/02/29 00:04:38;;;;;;;;;;;23.00;43.90;;;;;;5054644;28;19968;-64
2024/02/29 00:07:05;;;;;;;;;;;23.00;43.90;;;;;;5054784;28;19924;-63
2024/02/29 00:09:32;;;;;;;;;;;23.00;43.90;;;;;;5054882;28;19928;-62
2024/02/29 00:11:59;;;;;;;;;;;23.00;43.80;;;;;;5053848;28;20019;-63
2024/02/29 00:14:26;;;;;;;;;;;23.00;43.90;;;;;;5054675;28;19925;-63
2024/02/29 00:16:53;;;;;;;;;;;23.00;43.90;;;;;;5054656;28;19924;-63
2024/02/29 00:19:20;;;;;;;;;;;23.00;43.90;;;;;;5054501;28;20485;-63
2024/02/29 00:21:47;;;;;;;;;;;23.00;43.90;;;;;;5054037;28;19925;-63
2024/02/29 00:24:15;;;;;;;;;;;23.00;43.90;;;;;;5054537;28;19971;-63
2024/02/29 00:26:42;;;;;;;;;;;22.90;43.80;;;;;;5054013;28;19933;-63
2024/02/29 00:29:09;;;;;;;;;;;22.90;43.80;;;;;;5053888;28;20282;-63
2024/02/29 00:31:36;;;;;;;;;;;23.00;43.90;;;;;;5054091;28;20385;-63
2024/02/29 00:34:03;;;;;;;;;;;22.90;43.90;;;;;;5054393;28;20020;-63
2024/02/29 00:36:30;;;;;;;;;;;22.90;43.90;;;;;;5053736;28;20370;-63
2024/02/29 00:38:58;;;;;;;;;;;22.90;43.90;;;;;;5054187;28;19925;-63
2024/02/29 00:41:37;;;;;;;;;;;22.90;43.90;;;;;;5053959;28;19925;-63
2024/02/29 00:44:04;;;;;;;;;;;22.90;44.00;;;;;;5054289;28;19999;-63
2024/02/29 00:46:31;;;;;;;;;;;22.80;43.90;;;;;;5053311;28;20374;-62
2024/02/29 00:48:58;;;;;;;;;;;22.80;44.00;;;;;;5053984;28;19947;-63
2024/02/29 00:51:25;;;;;;;;;;;22.80;44.00;;;;;;5036399;28;20336;-63
2024/02/29 00:53:52;;;;;;;;;;;22.80;44.10;;;;;;5053592;28;19979;-63
2024/02/29 00:56:19;;;;;;;;;;;22.80;44.10;;;;;;5053530;28;19978;-65
2024/02/29 00:58:46;;;;;;;;;;;22.80;44.00;;;;;;5035871;28;19975;-62
2024/02/29 01:01:13;;;;;;;;;;;22.80;43.90;;;;;;5053040;28;20357;-63
2024/02/29 01:03:40;;;;;;;;;;;22.80;43.90;;;;;;5053401;28;20011;-63
2024/02/29 01:06:07;;;;;;;;;;;22.80;43.90;;;;;;5052691;28;19975;-63
2024/02/29 01:08:34;;;;;;;;;;;22.90;43.90;;;;;;5053644;28;19931;-62
2024/02/29 01:11:03;;;;;;;;;;;22.90;43.90;;;;;;5053537;28;19924;-63
2024/02/29 01:13:30;;;;;;;;;;;22.80;43.80;;;;;;5053291;28;20429;-63
2024/02/29 01:15:57;;;;;;;;;;;22.80;43.80;;;;;;5053336;28;20390;-63
2024/02/29 01:18:24;;;;;;;;;;;22.80;43.80;;;;;;5052632;28;19928;-63
2024/02/29 01:20:51;;;;;;;;;;;22.80;43.80;;;;;;5053329;28;19928;-63
2024/02/29 01:23:18;;;;;;;;;;;22.80;43.80;;;;;;5053334;28;19925;-63
2024/02/29 01:25:45;;;;;;;;;;;22.80;43.80;;;;;;5052967;28;20369;-63
2024/02/29 01:28:12;;;;;;;;;;;22.80;43.80;;;;;;5053186;28;20027;-63
2024/02/29 01:30:39;;;;;;;;;;;22.80;43.80;;;;;;5053539;28;20376;-63
2024/02/29 01:33:06;;;;;;;;;;;22.80;43.80;;;;;;5052890;28;19932;-62
2024/02/29 01:35:33;;;;;;;;;;;22.90;43.90;;;;;;5052857;28;19951;-63
2024/02/29 01:38:00;;;;;;;;;;;22.80;43.80;;;;;;5051639;28;20409;-63
2024/02/29 01:40:27;;;;;;;;;;;22.80;43.80;;;;;;5052707;28;19940;-63
2024/02/29 01:42:54;;;;;;;;;;;22.90;43.90;;;;;;5053104;28;19936;-63
2024/02/29 01:45:21;;;;;;;;;;;22.80;43.90;;;;;;5035541;28;20012;-63
2024/02/29 01:47:48;;;;;;;;;;;22.70;43.90;;;;;;5053109;28;19954;-63
2024/02/29 01:50:15;;;;;;;;;;;22.70;44.00;;;;;;5053305;28;20283;-63
2024/02/29 01:52:43;;;;;;;;;;;22.70;44.60;;;;;;5032748;28;19929;-63
2024/02/29 01:55:11;;;;;;;;;;;22.70;44.00;;;;;;5033028;28;19932;-63
2024/02/29 01:57:38;;;;;;;;;;;22.70;44.00;;;;;;5032985;28;19925;-63
2024/02/29 02:00:07;;;;;;;;;;;22.70;44.00;;;;;;5033510;28;19925;-63
2024/02/29 02:02:36;;;;;;;;;;;22.70;43.90;;;;;;5033096;28;19979;-63
2024/02/29 02:05:04;;;;;;;;;;;22.70;43.90;;;;;;5035081;28;19928;-63
2024/02/29 02:07:32;;;;;;;;;;;22.70;43.80;;;;;;5042830;28;20395;-64
2024/02/29 02:09:59;;;;;;;;;;;22.70;43.80;;;;;;5056858;28;19924;-63
2024/02/29 02:12:26;;;;;;;;;;;22.70;43.80;;;;;;5056676;28;20377;-63
2024/02/29 02:14:53;;;;;;;;;;;22.80;43.80;;;;;;5057040;28;19947;-63
2024/02/29 02:17:20;;;;;;;;;;;22.70;43.70;;;;;;5056615;28;20007;-63
2024/02/29 02:19:47;;;;;;;;;;;22.80;43.80;;;;;;5056701;28;19925;-63
2024/02/29 02:22:14;;;;;;;;;;;22.70;43.70;;;;;;5056428;28;19974;-63
2024/02/29 02:24:41;;;;;;;;;;;22.70;43.70;;;;;;5055962;28;19971;-63
2024/02/29 02:27:08;;;;;;;;;;;22.70;43.70;;;;;;5055699;28;19932;-63
2024/02/29 02:29:35;;;;;;;;;;;22.70;43.70;;;;;;5056407;28;19924;-64
2024/02/29 02:32:02;;;;;;;;;;;22.70;43.70;;;;;;5056639;28;19929;-63
2024/02/29 02:34:30;;;;;;;;;;;22.70;43.80;;;;;;5056174;28;20012;-63
2024/02/29 02:36:57;;;;;;;;;;;22.70;43.70;;;;;;5056194;28;19924;-63
2024/02/29 02:39:24;;;;;;;;;;;22.70;43.80;;;;;;5056388;28;19925;-63
2024/02/29 02:41:51;;;;;;;;;;;22.70;43.80;;;;;;5055224;28;20408;-63
2024/02/29 02:44:18;;;;;;;;;;;22.70;43.80;;;;;;5056126;28;19971;-63
2024/02/29 02:46:45;;;;;;;;;;;22.70;43.80;;;;;;5055946;28;19979;-63
2024/02/29 02:49:13;;;;;;;;;;;22.70;43.90;;;;;;5056087;28;20372;-63
2024/02/29 02:51:40;;;;;;;;;;;22.70;43.90;;;;;;5056074;28;19924;-64
2024/02/29 02:54:07;;;;;;;;;;;22.60;43.90;;;;;;5056244;28;19933;-63
2024/02/29 02:56:35;;;;;;;;;;;22.60;44.00;;;;;;5055422;28;20290;-63
2024/02/29 02:59:02;;;;;;;;;;;22.60;44.00;;;;;;5056123;28;19925;-63
2024/02/29 03:01:29;;;;;;;;;;;22.60;44.00;;;;;;5056259;28;20368;-63
2024/02/29 03:03:56;;;;;;;;;;;22.60;44.00;;;;;;5055845;28;19925;-63
2024/02/29 03:06:23;;;;;;;;;;;22.60;43.90;;;;;;5055694;28;19929;-63
2024/02/29 03:08:50;;;;;;;;;;;22.60;43.80;;;;;;5055988;28;19932;-63
2024/02/29 03:11:17;;;;;;;;;;;22.60;43.80;;;;;;5055703;28;19929;-63
2024/02/29 03:13:44;;;;;;;;;;;22.60;43.80;;;;;;5054699;28;19935;-64
2024/02/29 03:16:11;;;;;;;;;;;22.60;43.70;;;;;;5054483;28;19968;-63
2024/02/29 03:18:38;;;;;;;;;;;22.60;43.70;;;;;;5055218;28;19972;-63
2024/02/29 03:21:06;;;;;;;;;;;22.70;43.80;;;;;;5055066;28;19925;-63
2024/02/29 03:23:35;;;;;;;;;;;22.60;43.70;;;;;;5054664;28;20419;-63
2024/02/29 03:26:01;;;;;;;;;;;22.60;43.70;;;;;;5055395;28;20392;-63
2024/02/29 03:28:31;;;;;;;;;;;22.60;43.70;;;;;;5055379;28;19928;-63
2024/02/29 03:31:00;;;;;;;;;;;22.60;43.70;;;;;;5054688;28;19979;-62
2024/02/29 03:33:27;;;;;;;;;;;22.60;43.70;;;;;;5055211;28;19971;-63
2024/02/29 03:35:54;;;;;;;;;;;22.60;43.70;;;;;;5055572;28;19929;-63
2024/02/29 03:38:21;;;;;;;;;;;22.60;43.70;;;;;;5055137;28;19968;-63
2024/02/29 03:40:51;;;;;;;;;;;22.60;43.70;;;;;;5055171;28;20449;-64
2024/02/29 03:43:18;;;;;;;;;;;22.60;43.70;;;;;;5055571;28;20011;-63
2024/02/29 03:45:45;;;;;;;;;;;22.60;43.80;;;;;;5055453;28;20293;-63
2024/02/29 03:48:12;;;;;;;;;;;22.60;43.70;;;;;;5054736;28;19932;-63
2024/02/29 03:50:39;;;;;;;;;;;22.60;43.80;;;;;;5055265;28;20308;-63
2024/02/29 03:53:06;;;;;;;;;;;22.50;43.70;;;;;;5054673;28;19931;-63
2024/02/29 03:55:34;;;;;;;;;;;22.50;43.80;;;;;;5055340;28;20389;-63
2024/02/29 03:58:01;;;;;;;;;;;22.60;43.80;;;;;;5054743;28;19925;-63
2024/02/29 04:00:28;;;;;;;;;;;22.50;43.90;;;;;;5055095;28;19932;-63
2024/02/29 04:02:55;;;;;;;;;;;22.50;43.90;;;;;;5054160;28;20424;-63
2024/02/29 04:05:25;;;;;;;;;;;22.50;43.90;;;;;;5054917;28;20397;-63
2024/02/29 04:07:56;;;;;;;;;;;22.50;43.90;;;;;;5053805;28;19929;-63
2024/02/29 04:10:23;;;;;;;;;;;22.50;43.80;;;;;;5054865;28;20006;-63
2024/02/29 04:12:50;;;;;;;;;;;22.50;43.80;;;;;;5054740;28;19931;-65
2024/02/29 04:15:17;;;;;;;;;;;22.50;43.80;;;;;;5054837;28;19932;-63
2024/02/29 04:17:44;;;;;;;;;;;22.50;43.70;;;;;;5054499;28;19929;-63
2024/02/29 04:20:11;;;;;;;;;;;22.50;43.70;;;;;;5054180;28;20284;-63
2024/02/29 04:22:39;;;;;;;;;;;22.50;43.70;;;;;;5054203;28;19924;-63
2024/02/29 04:25:10;;;;;;;;;;;22.50;43.60;;;;;;5054674;28;19929;-63
2024/02/29 04:27:37;;;;;;;;;;;22.50;43.60;;;;;;5053732;28;19948;-63
2024/02/29 04:30:05;;;;;;;;;;;22.50;43.60;;;;;;5053998;28;19929;-64
2024/02/29 04:32:32;;;;;;;;;;;22.50;43.60;;;;;;5053740;28;19951;-63
2024/02/29 04:35:01;;;;;;;;;;;22.50;43.60;;;;;;5054141;28;19925;-64
2024/02/29 04:37:28;;;;;;;;;;;22.50;43.70;;;;;;5053388;28;19932;-63
2024/02/29 04:39:55;;;;;;;;;;;22.50;43.40;;;;;;5044603;28;20023;-66
2024/02/29 04:42:22;;;;;;;;;;;22.50;43.20;;;;;;5051152;28;19925;-63
2024/02/29 04:44:49;;;;;;;;;;;22.50;42.90;;;;;;5040728;28;19979;-63
2024/02/29 04:47:15;;;;;;;;;;;22.60;42.80;;;;;;5050134;28;20015;-63
2024/02/29 04:49:42;;;;;;;;;;;22.50;42.60;;;;;;5047042;28;19925;-64
2024/02/29 04:52:09;;;;;;;;;;;22.60;42.50;;;;;;5045751;28;20413;-64
2024/02/29 04:54:37;;;;;;;;;;;22.60;42.40;;;;;;5033889;28;19932;-66
2024/02/29 04:57:04;;;;;;;;;;;22.50;42.40;;;;;;5049046;28;19951;-67
2024/02/29 04:59:31;;;;;;;;;;;22.50;42.50;;;;;;5053703;28;19976;-66
2024/02/29 05:01:58;;;;;;;;;;;22.50;42.50;;;;;;5053589;28;19925;-70
2024/02/29 05:04:27;;;;;;;;;;;22.40;42.50;;;;;;5053543;28;19931;-66
2024/02/29 05:06:56;;;;;;;;;;;22.40;42.40;;;;;;5053842;28;20020;-67
2024/02/29 05:09:23;;;;;;;;;;;22.40;42.40;;;;;;5052016;28;19931;-68
2024/02/29 05:11:50;;;;;;;;;;;22.40;42.30;;;;;;5053451;28;20012;-71
2024/02/29 05:14:17;;;;;;;;;;;22.40;42.30;;;;;;5052342;28;19932;-67
2024/02/29 05:16:44;;;;;;;;;;;22.40;42.10;;;;;;5053619;28;19933;-67
2024/02/29 05:19:12;;;;;;;;;;;22.50;42.20;;;;;;5053474;28;20020;-65
2024/02/29 05:21:39;;;;;;;;;;;22.40;42.00;;;;;;5053146;28;19972;-66
2024/02/29 05:24:06;;;;;;;;;;;22.40;41.90;;;;;;5052930;28;20393;-67
2024/02/29 05:26:33;;;;;;;;;;;22.50;41.90;;;;;;5035553;28;20011;-65
2024/02/29 05:29:00;;;;;;;;;;;22.50;41.90;;;;;;5052938;28;19971;-65
2024/02/29 05:31:27;;;;;;;;;;;22.40;41.80;;;;;;5051707;28;20397;-65
2024/02/29 05:33:55;;;;;;;;;;;22.50;41.80;;;;;;5052042;28;19987;-65
2024/02/29 05:36:22;;;;;;;;;;;22.50;41.70;;;;;;5052416;28;19925;-65
2024/02/29 05:38:50;;;;;;;;;;;22.50;41.60;;;;;;5052134;28;20012;-66
2024/02/29 05:41:17;;;;;;;;;;;22.50;41.60;;;;;;5052719;28;20444;-65
2024/02/29 05:43:45;;;;;;;;;;;22.50;41.60;;;;;;5052379;28;19928;-66
2024/02/29 05:46:12;;;;;;;;;;;22.50;41.60;;;;;;5052838;28;19931;-67
2024/02/29 05:48:39;;;;;;;;;;;22.50;41.50;;;;;;5051409;28;19925;-66
2024/02/29 05:51:08;;;;;;;;;;;22.50;41.40;;;;;;5052690;28;19978;-67
2024/02/29 05:53:35;;;;;;;;;;;22.50;41.30;;;;;;5053059;28;19955;-65
2024/02/29 05:56:02;;;;;;;;;;;22.50;41.30;;;;;;5053020;28;19932;-65
2024/02/29 05:58:31;;;;;;;;;;;22.50;41.20;;;;;;5052042;28;20305;-65
2024/02/29 06:00:58;;;;;;;;;;;22.50;41.20;;;;;;5052784;28;19925;-65
2024/02/29 06:03:26;;;;;;;;;;;22.50;41.20;;;;;;5051887;28;19979;-65
2024/02/29 06:05:53;;;;;;;;;;;22.50;41.20;;;;;;5052108;28;19924;-69
2024/02/29 06:08:20;;;;;;;;;;;22.50;41.20;;;;;;5052056;28;19925;-68
2024/02/29 06:10:47;;;;;;;;;;;22.50;41.20;;;;;;5051808;28;19932;-68
2024/02/29 06:13:14;;;;;;;;;;;22.50;41.20;;;;;;5052392;28;20019;-66
2024/02/29 06:15:41;;;;;;;;;;;22.50;41.30;;;;;;5050694;28;19982;-66
2024/02/29 06:18:10;;;;;;;;;;;22.50;41.20;;;;;;5048205;28;19924;-65
2024/02/29 06:20:37;;;;;;;;;;;22.50;41.20;;;;;;5048232;28;19925;-65
2024/02/29 06:23:05;;;;;;;;;;;22.50;41.20;;;;;;5047028;28;19929;-67
2024/02/29 06:25:32;;;;;;;;;;;22.50;41.30;;;;;;5045381;28;19928;-65
2024/02/29 06:27:59;;;;;;;;;;;22.50;41.60;;;;;;5045816;28;19955;-63
2024/02/29 06:30:31;;;;;;;;;;;22.60;41.90;;;;;;5046174;28;19936;-65
2024/02/29 06:32:59;;;;;;;;;;;22.60;42.00;;;;;;5033369;28;19935;-63
2024/02/29 06:35:27;;;;;;;;;;;22.70;42.20;;;;;;5043503;28;19932;-67
2024/02/29 06:37:54;;;;;;;;;;;22.70;42.40;;;;;;5040809;28;19932;-66
2024/02/29 06:40:24;;;;;;;;;;;22.80;42.50;;;;;;5038843;28;20368;-66
2024/02/29 06:42:51;;;;;;;;;;;22.80;42.60;;;;;;5045243;28;19925;-65
2024/02/29 06:45:18;;;;;;;;;;;22.80;42.60;;;;;;5043706;28;19933;-67
2024/02/29 06:47:45;;;;;;;;;;;22.90;42.50;;;;;;5044075;28;19938;-65
2024/02/29 06:50:12;;;;;;;;;;;23.00;42.50;;;;;;5044804;28;20015;-65
2024/02/29 06:52:39;;;;;;;;;;;23.00;42.40;;;;;;5044771;28;20085;-66
2024/02/29 06:55:10;;;;;;;;;;;23.10;42.20;;;;;;5046854;28;20444;-66
2024/02/29 06:57:37;;;;;;;;;;;23.10;41.90;;;;;;5047259;28;19931;-68
2024/02/29 07:00:05;;;;;;;;;;;23.10;41.60;;;;;;5041722;28;19929;-70
2024/02/29 07:02:33;;;;;;;;;;;23.20;41.60;;;;;;5043488;28;19947;-66
2024/02/29 07:05:00;;;;;;;;;;;23.20;42.00;;;;;;5026318;28;20370;-62
2024/02/29 07:07:27;;;;;;;;;;;23.20;41.50;;;;;;5045114;28;19979;-69
2024/02/29 07:09:54;;;;;;;;;;;23.30;41.80;;;;;;5039804;28;20375;-70
2024/02/29 07:12:21;;;;;;;;;;;23.30;41.80;;;;;;5040353;28;19925;-70
2024/02/29 07:14:48;;;;;;;;;;;23.40;41.90;;;;;;5048639;28;19960;-64
2024/02/29 07:17:15;;;;;;;;;;;23.50;41.80;;;;;;5029427;28;19936;-66
2024/02/29 07:19:42;;;;;;;;;;;23.50;41.20;;;;;;5045712;28;20059;-64
2024/02/29 07:22:11;;;;;;;;;;;23.60;40.90;;;;;;5039689;28;20109;-66
2024/02/29 07:24:38;;;;;;;;;;;23.60;40.60;;;;;;5041738;28;19933;-66
2024/02/29 07:27:05;;;;;;;;;;;23.60;39.50;;;;;;5043727;28;19936;-64
2024/02/29 07:29:32;;;;;;;;;;;23.70;39.10;;;;;;5026223;28;20477;-63
2024/02/29 07:32:02;;;;;;;;;;;23.70;39.10;;;;;;5039754;28;19925;-64
2024/02/29 07:34:29;;;;;;;;;;;23.80;39.30;;;;;;5040524;28;19932;-65
2024/02/29 07:36:56;;;;;;;;;;;23.80;39.30;;;;;;5040174;28;19940;-66
2024/02/29 07:39:23;;;;;;;;;;;23.90;39.30;;;;;;5045012;28;19971;-66
2024/02/29 07:41:50;;;;;;;;;;;23.90;39.10;;;;;;5024349;28;20025;-67
2024/02/29 07:44:17;;;;;;;;;;;24.00;39.10;;;;;;5044324;28;19956;-62
2024/02/29 07:46:44;;;;;;;;;;;24.10;39.20;;;;;;5048429;28;20013;-64
2024/02/29 07:49:11;;;;;;;;;;;24.10;39.20;;;;;;5024949;28;19964;-66
2024/02/29 07:51:38;;;;;;;;;;;24.20;39.30;;;;;;5049097;28;20037;-64
2024/02/29 07:54:09;;;;;;;;;;;24.20;39.30;;;;;;5044166;28;19932;-65
2024/02/29 07:56:40;;;;;;;;;;;24.30;39.40;;;;;;5043031;28;20773;-62
2024/02/29 07:59:07;;;;;;;;;;;24.30;39.30;;;;;;5038901;28;19933;-63
2024/02/29 08:01:35;;;;;;;;;;;24.30;39.20;;;;;;5042266;28;20120;-63
2024/02/29 08:04:02;;;;;;;;;;;24.40;39.20;;;;;;5042374;28;19933;-64
2024/02/29 08:06:29;;;;;;;;;;;24.40;39.20;;;;;;5043440;28;20011;-66
2024/02/29 08:08:56;;;;;;;;;;;24.50;39.30;;;;;;5040207;28;20023;-63
2024/02/29 08:11:25;;;;;;;;;;;24.50;39.30;;;;;;5039930;28;20026;-65
2024/02/29 08:13:53;;;;;;;;;;;24.50;39.30;;;;;;5045719;28;20437;-64
2024/02/29 08:16:20;;;;;;;;;;;24.60;39.20;;;;;;5046027;28;19932;-63
2024/02/29 08:18:47;;;;;;;;;;;24.60;39.30;;;;;;5040790;28;20386;-63
2024/02/29 08:21:14;;;;;;;;;;;24.70;39.30;;;;;;5041875;28;19943;-63
2024/02/29 08:23:41;;;;;;;;;;;24.70;39.90;;;;;;5041946;28;19933;-63
2024/02/29 08:26:09;;;;;;;;;;;24.70;39.30;;;;;;5044065;28;20045;-64
2024/02/29 08:28:37;;;;;;;;;;;24.70;39.20;;;;;;5042866;28;20382;-66
2024/02/29 08:31:05;;;;;;;;;;;24.80;39.20;;;;;;5044880;28;19932;-63
2024/02/29 08:33:32;;;;;;;;;;;24.80;39.20;;;;;;5043976;28;20344;-63
2024/02/29 08:35:59;;;;;;;;;;;24.80;39.20;;;;;;5043912;28;19925;-62
2024/02/29 08:38:27;;;;;;;;;;;24.80;39.30;;;;;;5037965;28;19929;-62
2024/02/29 08:40:54;;;;;;;;;;;24.90;39.30;;;;;;5040809;28;19932;-62
2024/02/29 08:43:21;;;;;;;;;;;24.90;39.20;;;;;;5009485;28;19941;-65
2024/02/29 08:45:49;;;;;;;;;;;24.90;39.20;;;;;;5042095;28;20039;-63
2024/02/29 08:48:16;;;;;;;;;;;24.90;39.30;;;;;;5043943;28;20366;-65
2024/02/29 08:50:43;;;;;;;;;;;24.90;39.20;;;;;;5040338;28;19929;-67
2024/02/29 08:53:10;;;;;;;;;;;25.00;39.20;;;;;;5044096;28;19964;-67
2024/02/29 08:55:37;;;;;;;;;;;25.00;39.20;;;;;;5043794;28;19994;-68
2024/02/29 08:58:04;;;;;;;;;;;25.00;39.20;;;;;;5046307;28;19960;-65
2024/02/29 09:00:31;;;;;;;;;;;25.00;39.20;;;;;;5042184;28;19955;-65
2024/02/29 09:02:58;;;;;;;;;;;25.10;39.30;;;;;;5041623;28;19931;-62
2024/02/29 09:05:25;;;;;;;;;;;25.10;39.30;;;;;;5043168;28;20349;-63
2024/02/29 09:07:52;;;;;;;;;;;25.10;39.30;;;;;;5044317;28;19971;-66
2024/02/29 09:10:19;;;;;;;;;;;25.10;39.40;;;;;;5044455;28;19933;-63
2024/02/29 09:12:46;;;;;;;;;;;25.20;39.40;;;;;;5042118;28;20353;-65
2024/02/29 09:15:14;;;;;;;;;;;25.20;39.60;;;;;;5042638;28;19931;-71
2024/02/29 09:17:41;;;;;;;;;;;25.20;39.60;;;;;;5042286;28;19933;-65
2024/02/29 09:20:08;;;;;;;;;;;25.30;39.70;;;;;;5040279;28;20409;-64
2024/02/29 09:22:35;;;;;;;;;;;25.40;39.70;;;;;;5038677;28;19929;-68
2024/02/29 09:25:03;;;;;;;;;;;25.40;39.50;;;;;;5041729;28;20452;-63
2024/02/29 09:27:30;;;;;;;;;;;25.40;39.50;;;;;;5042096;28;20023;-63
2024/02/29 09:29:57;;;;;;;;;;;25.40;39.40;;;;;;5019907;28;19936;-64
2024/02/29 09:32:24;;;;;;;;;;;25.50;39.30;;;;;;5040229;28;19929;-63
2024/02/29 09:34:51;;;;;;;;;;;25.50;39.00;;;;;;5041621;28;19929;-63
2024/02/29 09:37:19;;;;;;;;;;;25.60;39.00;;;;;;5044696;28;19924;-65
2024/02/29 09:39:46;;;;;;;;;;;25.60;39.00;;;;;;5044260;28;20019;-66
2024/02/29 09:42:13;;;;;;;;;;;25.60;38.90;;;;;;5029744;28;19932;-67
2024/02/29 09:44:44;;;;;;;;;;;25.70;38.90;;;;;;5043149;28;20309;-62
2024/02/29 09:47:13;;;;;;;;;;;25.70;38.80;;;;;;5041252;28;20353;-66
2024/02/29 09:49:40;;;;;;;;;;;25.70;38.60;;;;;;5039154;28;20389;-63
2024/02/29 09:52:11;;;;;;;;;;;25.70;38.40;;;;;;5046108;28;19933;-62
2024/02/29 09:54:39;;;;;;;;;;;25.70;38.30;;;;;;5040173;28;19933;-65
2024/02/29 09:57:10;;;;;;;;;;;25.80;38.30;;;;;;5045325;28;19968;-71
2024/02/29 09:59:41;;;;;;;;;;;25.80;38.20;;;;;;5028639;28;19933;-68
2024/02/29 10:02:14;;;;;;;;;;;25.90;38.20;;;;;;5037232;28;20629;-67
2024/02/29 10:04:41;;;;;;;;;;;25.90;38.10;;;;;;5024229;28;19933;-64
2024/02/29 10:07:08;;;;;;;;;;;25.90;38.10;;;;;;5038356;28;19936;-73
2024/02/29 10:09:35;;;;;;;;;;;26.00;38.30;;;;;;5034683;28;19939;-69
2024/02/29 10:12:02;;;;;;;;;;;26.00;38.20;;;;;;5035110;28;20386;-69
2024/02/29 10:14:30;;;;;;;;;;;26.00;38.00;;;;;;5033781;28;20338;-71
2024/02/29 10:16:57;;;;;;;;;;;26.00;37.80;;;;;;5038377;28;19925;-69
2024/02/29 10:19:25;;;;;;;;;;;26.10;37.80;;;;;;5034787;28;20014;-69
2024/02/29 10:21:52;;;;;;;;;;;26.10;37.80;;;;;;5039719;28;19932;-71
2024/02/29 10:24:19;;;;;;;;;;;26.20;37.80;;;;;;5042075;28;20332;-63
2024/02/29 10:26:47;;;;;;;;;;;26.20;37.90;;;;;;5042119;28;19929;-66
2024/02/29 10:29:16;;;;;;;;;;;26.20;37.90;;;;;;5036966;28;20007;-63
2024/02/29 10:31:44;;;;;;;;;;;26.20;38.00;;;;;;5045822;28;19939;-65
2024/02/29 10:34:15;;;;;;;;;;;26.20;37.80;;;;;;5043984;28;20271;-62
2024/02/29 10:36:43;;;;;;;;;;;26.20;37.80;;;;;;5040426;28;19932;-62
2024/02/29 10:39:10;;;;;;;;;;;26.30;37.70;;;;;;5042194;28;19933;-64
2024/02/29 10:41:40;;;;;;;;;;;26.30;37.20;;;;;;5033980;28;19986;-62
2024/02/29 10:44:09;;;;;;;;;;;26.20;37.00;;;;;;5043369;28;19924;-62
2024/02/29 10:46:40;;;;;;;;;;;26.20;36.80;;;;;;5049372;28;20332;-61
2024/02/29 10:49:10;;;;;;;;;;;26.20;36.80;;;;;;5042061;28;19929;-62
2024/02/29 10:51:47;;;;;;;;;;;26.20;36.70;;;;;;5025332;28;19972;-61
2024/02/29 10:54:19;;;;;;;;;;;26.20;36.60;;;;;;5042367;28;20879;-61
2024/02/29 10:56:47;;;;;;;;;;;26.10;36.50;;;;;;5047762;28;19939;-61
2024/02/29 10:59:16;;;;;;;;;;;26.10;37.10;;;;;;5045013;28;20150;-61
2024/02/29 11:01:44;;;;;;;;;;;26.10;36.50;;;;;;5029586;28;19933;-60
2024/02/29 11:04:11;;;;;;;;;;;26.10;36.40;;;;;;5046663;28;19979;-61
2024/02/29 11:06:42;;;;;;;;;;;26.10;36.50;;;;;;5050953;28;19925;-63
2024/02/29 11:09:11;;;;;;;;;;;26.10;36.50;;;;;;5049150;28;19932;-63
2024/02/29 11:11:38;;;;;;;;;;;26.10;36.50;;;;;;5048424;28;20378;-63
2024/02/29 11:14:08;;;;;;;;;;;26.10;36.40;;;;;;5050659;28;19932;-63
2024/02/29 11:16:39;;;;;;;;;;;26.10;36.40;;;;;;5041941;28;19941;-63
2024/02/29 11:19:06;;;;;;;;;;;26.10;36.50;;;;;;5024255;28;20031;-63
2024/02/29 11:21:33;;;;;;;;;;;26.10;36.60;;;;;;5038239;28;20035;-63
2024/02/29 11:24:02;;;;;;;;;;;26.10;36.70;;;;;;5043139;28;19970;-65
2024/02/29 11:26:33;;;;;;;;;;;26.10;36.70;;;;;;5046918;28;19932;-63
2024/02/29 11:29:11;;;;;;;;;;;26.10;36.10;;;;;;5047535;28;20294;-64
2024/02/29 11:31:43;;;;;;;;;;;26.00;36.50;;;;;;5040971;28;19929;-63
2024/02/29 11:34:11;;;;;;;;;;;25.90;36.60;;;;;;5028104;28;20377;-63
2024/02/29 11:36:38;;;;;;;;;;;25.90;36.70;;;;;;5044003;28;20305;-63
2024/02/29 11:39:09;;;;;;;;;;;25.90;36.90;;;;;;5045808;28;19928;-64
2024/02/29 11:41:37;;;;;;;;;;;25.90;37.20;;;;;;5040535;28;20007;-63
2024/02/29 11:44:04;;;;;;;;;;;25.90;37.10;;;;;;5046014;28;20364;-62
2024/02/29 11:46:31;;;;;;;;;;;25.80;37.10;;;;;;5043749;28;19978;-63
2024/02/29 11:48:58;;;;;;;;;;;25.80;37.30;;;;;;5042350;28;19924;-63
2024/02/29 11:51:25;;;;;;;;;;;25.90;37.30;;;;;;5045284;28;19933;-60
2024/02/29 11:53:53;;;;;;;;;;;25.80;37.10;;;;;;5045909;28;19932;-67
2024/02/29 11:56:21;;;;;;;;;;;25.90;37.20;;;;;;5045112;28;19925;-67
2024/02/29 11:58:49;;;;;;;;;;;25.90;37.40;;;;;;5026581;28;19979;-66
2024/02/29 12:01:16;;;;;;;;;;;25.90;37.40;;;;;;5024916;28;19933;-64
2024/02/29 12:03:44;;;;;;;;;;;26.00;37.20;;;;;;5038712;28;20015;-63
2024/02/29 12:06:12;;;;;;;;;;;26.10;37.20;;;;;;5038709;28;20267;-63
2024/02/29 12:08:41;;;;;;;;;;;26.10;37.10;;;;;;5043855;28;20006;-62
2024/02/29 12:11:09;;;;;;;;;;;26.10;36.90;;;;;;5038769;28;20019;-67
2024/02/29 12:13:38;;;;;;;;;;;26.20;36.90;;;;;;5042888;28;19933;-67
2024/02/29 12:16:06;;;;;;;;;;;26.20;37.10;;;;;;5042314;28;20665;-68
2024/02/29 12:18:34;;;;;;;;;;;26.20;37.20;;;;;;5037389;28;19944;-66
2024/02/29 12:21:01;;;;;;;;;;;26.30;37.20;;;;;;5039333;28;19995;-66
2024/02/29 12:23:30;;;;;;;;;;;26.30;37.20;;;;;;5036700;28;19964;-68
2024/02/29 12:26:08;;;;;;;;;;;26.30;37.30;;;;;;5039956;28;19936;-66
2024/02/29 12:28:35;;;;;;;;;;;26.40;37.30;;;;;;5032456;28;19940;-72
2024/02/29 12:31:03;;;;;;;;;;;26.40;37.70;;;;;;5039952;28;19925;-68
2024/02/29 12:33:30;;;;;;;;;;;26.50;37.20;;;;;;5037924;28;19928;-70
2024/02/29 12:35:59;;;;;;;;;;;26.50;37.10;;;;;;5041370;28;20458;-71
2024/02/29 12:38:27;;;;;;;;;;;26.50;37.00;;;;;;5042447;28;19933;-71
2024/02/29 12:40:54;;;;;;;;;;;26.50;36.90;;;;;;5044850;28;19929;-69
2024/02/29 12:43:22;;;;;;;;;;;26.50;37.00;;;;;;5042402;28;19925;-71
2024/02/29 12:45:49;;;;;;;;;;;26.50;37.00;;;;;;5042135;28;19932;-69
2024/02/29 12:48:16;;;;;;;;;;;26.40;36.80;;;;;;5045680;28;19925;-66
2024/02/29 12:50:43;;;;;;;;;;;26.50;36.90;;;;;;5042148;28;19925;-66
2024/02/29 12:53:10;;;;;;;;;;;26.40;36.90;;;;;;5037043;28;19935;-69
2024/02/29 12:55:37;;;;;;;;;;;26.40;37.10;;;;;;5041072;28;19975;-66
2024/02/29 12:58:04;;;;;;;;;;;26.40;37.20;;;;;;5042493;28;19983;-65
2024/02/29 13:00:32;;;;;;;;;;;26.40;36.90;;;;;;5037191;28;21289;-67
2024/02/29 13:02:59;;;;;;;;;;;26.30;36.90;;;;;;5043683;28;20333;-70
2024/02/29 13:05:26;;;;;;;;;;;26.30;37.10;;;;;;5041166;28;20387;-73
2024/02/29 13:07:53;;;;;;;;;;;26.30;37.20;;;;;;5039739;28;19925;-67
2024/02/29 13:10:22;;;;;;;;;;;26.30;37.30;;;;;;5036566;28;19937;-68
2024/02/29 13:12:50;;;;;;;;;;;26.30;37.30;;;;;;5035211;28;19924;-68
2024/02/29 13:15:26;;;;;;;;;;;26.30;37.30;;;;;;5038090;28;19929;-68
2024/02/29 13:17:53;;;;;;;;;;;26.30;37.20;;;;;;5041858;28;19929;-66
2024/02/29 13:20:20;;;;;;;;;;;26.30;36.90;;;;;;5037711;28;19936;-69
2024/02/29 13:22:47;;;;;;;;;;;26.30;36.90;;;;;;5035918;28;20346;-70
2024/02/29 13:25:14;;;;;;;;;;;26.30;36.80;;;;;;5035254;28;19933;-68
2024/02/29 13:27:41;;;;;;;;;;;26.30;36.80;;;;;;5044566;28;19925;-66
2024/02/29 13:30:08;;;;;;;;;;;26.30;36.70;;;;;;5041864;28;19931;-69
2024/02/29 13:32:35;;;;;;;;;;;26.30;36.80;;;;;;5024943;28;19935;-68
2024/02/29 13:35:03;;;;;;;;;;;26.30;37.00;;;;;;5039019;28;19933;-66
2024/02/29 13:37:31;;;;;;;;;;;26.30;36.90;;;;;;5034231;28;19932;-67
2024/02/29 13:39:58;;;;;;;;;;;26.30;36.70;;;;;;5039485;28;19936;-62
2024/02/29 13:42:25;;;;;;;;;;;26.30;36.60;;;;;;5043534;28;19929;-69
2024/02/29 13:44:51;;;;;;;;;;;26.20;36.70;;;;;;5043113;28;19971;-66
2024/02/29 13:47:18;;;;;;;;;;;26.20;37.10;;;;;;5040589;28;19956;-69
2024/02/29 13:49:45;;;;;;;;;;;26.20;36.90;;;;;;5042399;28;20097;-66
2024/02/29 13:52:16;;;;;;;;;;;26.20;36.80;;;;;;5044814;28;20285;-71
2024/02/29 13:54:45;;;;;;;;;;;26.20;36.80;;;;;;5042709;28;20021;-71
2024/02/29 13:57:14;;;;;;;;;;;26.20;37.10;;;;;;5039394;28;20341;-68
2024/02/29 13:59:42;;;;;;;;;;;26.20;37.00;;;;;;5020560;28;19936;-73
2024/02/29 14:02:10;;;;;;;;;;;26.20;37.10;;;;;;5042276;28;19925;-66
2024/02/29 14:04:37;;;;;;;;;;;26.20;37.20;;;;;;5039011;28;19937;-62
2024/02/29 14:07:04;;;;;;;;;;;26.20;37.10;;;;;;5044530;28;20425;-67
2024/02/29 14:09:34;;;;;;;;;;;26.20;37.00;;;;;;5042790;28;20007;-73
2024/02/29 14:12:01;;;;;;;;;;;26.20;37.10;;;;;;5037558;28;19933;-75
2024/02/29 14:14:28;;;;;;;;;;;26.20;37.00;;;;;;5042773;28;19928;-66
2024/02/29 14:16:55;;;;;;;;;;;26.20;37.00;;;;;;5042325;28;20038;-66
2024/02/29 14:19:22;;;;;;;;;;;26.20;36.90;;;;;;5043409;28;19933;-68